createdAt,value
2022-08-02T00:00:14.870Z,18.30
2022-08-02T00:02:42.182Z,18.40
2022-08-02T00:05:09.199Z,18.40
2022-08-02T00:07:40.889Z,18.50
2022-08-02T00:10:09.413Z,18.50
2022-08-02T00:12:36.215Z,18.50
2022-08-02T00:15:04.066Z,18.60
2022-08-02T00:17:30.701Z,18.60
2022-08-02T00:19:57.150Z,18.60
2022-08-02T00:22:23.696Z,18.70
2022-08-02T00:24:50.349Z,18.80
2022-08-02T00:27:16.871Z,18.80
2022-08-02T00:29:52.498Z,18.70
2022-08-02T00:32:19.794Z,18.70
2022-08-02T00:34:46.652Z,18.80
2022-08-02T00:37:13.246Z,18.80
2022-08-02T00:39:39.952Z,18.80
2022-08-02T00:42:06.812Z,18.70
2022-08-02T00:44:33.488Z,18.70
2022-08-02T00:47:00.183Z,18.70
2022-08-02T00:49:27.052Z,18.80
2022-08-02T00:51:53.612Z,18.80
2022-08-02T00:54:20.909Z,18.70
2022-08-02T00:56:50.161Z,18.80
2022-08-02T00:59:18.149Z,18.70
2022-08-02T01:01:56.712Z,18.80
2022-08-02T01:04:31.184Z,18.80
2022-08-02T01:07:12.506Z,18.80
2022-08-02T01:09:47.196Z,18.70
2022-08-02T01:12:14.354Z,18.80
2022-08-02T01:14:43.439Z,18.80
2022-08-02T01:17:49.402Z,18.80
2022-08-02T01:21:00.281Z,18.70
2022-08-02T01:24:00.763Z,18.70
2022-08-02T01:26:42.655Z,18.80
2022-08-02T01:29:13.319Z,18.80
2022-08-02T01:31:47.282Z,18.80
2022-08-02T01:34:35.672Z,18.80
2022-08-02T01:37:22.467Z,18.80
2022-08-02T01:39:54.411Z,18.80
2022-08-02T01:42:24.530Z,18.80
2022-08-02T01:44:53.695Z,18.70
2022-08-02T01:47:26.473Z,18.80
2022-08-02T01:49:56.128Z,18.70
2022-08-02T01:52:26.237Z,18.70
2022-08-02T01:55:05.188Z,18.70
2022-08-02T01:57:41.819Z,18.70
2022-08-02T02:00:11.143Z,18.70
2022-08-02T02:02:40.898Z,18.80
2022-08-02T02:05:13.422Z,18.60
2022-08-02T02:07:40.792Z,18.70
2022-08-02T02:10:09.304Z,18.60
2022-08-02T02:12:38.301Z,18.50
2022-08-02T02:15:06.425Z,18.50
2022-08-02T02:17:52.921Z,18.40
2022-08-02T02:20:22.016Z,18.40
2022-08-02T02:22:49.820Z,18.50
2022-08-02T02:25:19.142Z,18.60
2022-08-02T02:28:00.673Z,18.60
2022-08-02T02:30:29.918Z,18.60
2022-08-02T02:32:59.786Z,18.60
2022-08-02T02:35:30.541Z,18.50
2022-08-02T02:38:00.979Z,18.50
2022-08-02T02:40:29.224Z,18.30
2022-08-02T02:42:57.023Z,18.30
2022-08-02T02:45:24.952Z,18.10
2022-08-02T02:47:53.503Z,18.10
2022-08-02T02:50:21.691Z,17.70
2022-08-02T02:52:48.669Z,17.80
2022-08-02T02:55:17.366Z,17.80
2022-08-02T02:57:44.825Z,17.80
2022-08-02T03:00:14.255Z,17.70
2022-08-02T03:02:43.119Z,17.80
2022-08-02T03:05:11.262Z,17.90
2022-08-02T03:07:38.463Z,17.90
2022-08-02T03:10:07.260Z,17.90
2022-08-02T03:12:34.854Z,18.00
2022-08-02T03:15:05.010Z,17.90
2022-08-02T03:17:39.562Z,17.90
2022-08-02T03:20:12.261Z,17.70
2022-08-02T03:22:38.992Z,17.60
2022-08-02T03:25:07.161Z,17.60
2022-08-02T03:27:33.631Z,17.60
2022-08-02T03:30:00.210Z,17.60
2022-08-02T03:32:27.163Z,17.60
2022-08-02T03:34:53.783Z,17.60
2022-08-02T03:37:21.451Z,17.50
2022-08-02T03:39:52.923Z,17.50
2022-08-02T03:42:21.354Z,17.40
2022-08-02T03:44:49.778Z,17.30
2022-08-02T03:47:18.528Z,17.40
2022-08-02T03:49:46.189Z,17.30
2022-08-02T03:52:13.796Z,17.30
2022-08-02T03:54:45.390Z,17.30
2022-08-02T03:57:13.937Z,17.30
2022-08-02T03:59:46.443Z,17.40
2022-08-02T04:02:14.371Z,17.30
2022-08-02T04:04:41.257Z,17.30
2022-08-02T04:07:07.869Z,17.40
2022-08-02T04:09:34.634Z,17.30
2022-08-02T04:12:01.311Z,17.30
2022-08-02T04:14:28.160Z,17.40
2022-08-02T04:17:06.089Z,17.40
2022-08-02T04:19:36.608Z,17.40
2022-08-02T04:22:06.687Z,17.60
2022-08-02T04:24:39.581Z,17.70
2022-08-02T04:27:49.278Z,17.90
2022-08-02T04:29:54.780Z,17.90
2022-08-02T04:32:22.078Z,17.80
2022-08-02T04:35:22.505Z,17.90
2022-08-02T04:37:35.623Z,18.00
2022-08-02T04:40:02.123Z,17.90
2022-08-02T04:42:28.858Z,18.00
2022-08-02T04:44:55.436Z,17.90
2022-08-02T04:47:54.088Z,18.00
2022-08-02T04:50:09.063Z,17.80
2022-08-02T04:52:35.633Z,17.70
2022-08-02T04:55:02.117Z,17.80
2022-08-02T04:57:52.885Z,17.80
2022-08-02T05:00:19.786Z,17.90
2022-08-02T05:02:46.482Z,17.80
2022-08-02T05:05:13.144Z,17.80
2022-08-02T05:07:39.620Z,17.90
2022-08-02T05:10:07.546Z,17.90
2022-08-02T05:12:34.039Z,17.90
2022-08-02T05:15:00.720Z,18.00
2022-08-02T05:17:27.332Z,18.00
2022-08-02T05:19:53.821Z,17.70
2022-08-02T05:22:20.498Z,17.90
2022-08-02T05:24:47.044Z,18.00
2022-08-02T05:27:21.600Z,18.10
2022-08-02T05:29:51.088Z,18.10
2022-08-02T05:32:20.868Z,18.20
2022-08-02T05:34:50.397Z,18.30
2022-08-02T05:37:17.009Z,18.40
2022-08-02T05:39:55.569Z,18.50
2022-08-02T05:42:23.260Z,18.70
2022-08-02T05:44:49.772Z,18.70
2022-08-02T05:47:16.536Z,18.80
2022-08-02T05:49:43.064Z,19.00
2022-08-02T05:52:16.264Z,19.10
2022-08-02T05:55:07.380Z,19.20
2022-08-02T05:58:02.872Z,19.20
2022-08-02T06:00:33.342Z,19.20
2022-08-02T06:03:16.874Z,19.50
2022-08-02T06:06:02.196Z,20.30
2022-08-02T06:08:33.598Z,23.90
2022-08-02T06:11:03.984Z,26.30
2022-08-02T06:13:31.270Z,27.50
2022-08-02T06:15:59.495Z,28.20
2022-08-02T06:18:29.484Z,29.30
2022-08-02T06:20:59.366Z,30.20
2022-08-02T06:23:58.935Z,31.60
2022-08-02T06:26:27.426Z,33.00
2022-08-02T06:28:55.995Z,34.10
2022-08-02T06:31:23.054Z,34.20
2022-08-02T06:33:49.594Z,33.40
2022-08-02T06:36:18.486Z,33.40
2022-08-02T06:39:11.152Z,33.60
2022-08-02T06:41:42.279Z,33.30
2022-08-02T06:44:42.350Z,33.00
2022-08-02T06:47:11.971Z,35.20
2022-08-02T06:49:52.632Z,33.50
2022-08-02T06:52:28.853Z,35.10
2022-08-02T06:55:01.597Z,34.50
2022-08-02T06:57:29.167Z,32.50
2022-08-02T06:59:56.232Z,34.60
2022-08-02T07:02:22.975Z,32.80
2022-08-02T07:04:49.641Z,35.30
2022-08-02T07:07:16.410Z,35.50
2022-08-02T07:09:56.887Z,34.60
2022-08-02T07:12:31.812Z,33.70
2022-08-02T07:15:00.168Z,36.30
2022-08-02T07:17:27.238Z,36.90
2022-08-02T07:19:53.709Z,37.20
2022-08-02T07:22:23.005Z,36.80
2022-08-02T07:24:50.156Z,37.40
2022-08-02T07:27:16.728Z,38.20
2022-08-02T07:29:46.491Z,37.30
2022-08-02T07:32:18.239Z,36.90
2022-08-02T07:34:50.836Z,40.00
2022-08-02T07:37:36.011Z,41.50
2022-08-02T07:40:12.392Z,39.80
2022-08-02T07:42:40.136Z,38.70
2022-08-02T07:45:06.735Z,39.80
2022-08-02T07:47:37.735Z,41.90
2022-08-02T07:50:05.750Z,39.10
2022-08-02T07:52:32.324Z,40.10
2022-08-02T07:54:58.955Z,39.30
2022-08-02T07:57:25.490Z,38.70
2022-08-02T07:59:52.170Z,42.20
2022-08-02T08:02:18.647Z,42.50
2022-08-02T08:04:45.097Z,43.10
2022-08-02T08:07:11.859Z,38.40
2022-08-02T08:09:41.708Z,42.20
2022-08-02T08:12:09.592Z,43.90
2022-08-02T08:14:36.871Z,43.30
2022-08-02T08:17:03.609Z,41.40
2022-08-02T08:19:50.408Z,37.50
2022-08-02T08:22:16.784Z,39.00
2022-08-02T08:24:43.306Z,41.30
2022-08-02T08:27:14.510Z,39.00
2022-08-02T08:29:44.864Z,41.20
2022-08-02T08:32:17.504Z,42.00
2022-08-02T08:34:45.895Z,41.30
2022-08-02T08:37:16.690Z,43.20
2022-08-02T08:39:56.571Z,40.80
2022-08-02T08:42:28.822Z,42.00
2022-08-02T08:44:57.572Z,40.70
2022-08-02T08:47:26.987Z,40.30
2022-08-02T08:50:04.694Z,41.40
2022-08-02T08:52:37.089Z,41.60
2022-08-02T08:55:05.168Z,38.40
2022-08-02T08:57:35.029Z,38.50
2022-08-02T09:00:01.747Z,41.40
2022-08-02T09:02:28.789Z,37.30
2022-08-02T09:04:55.827Z,35.70
2022-08-02T09:07:25.641Z,35.80
2022-08-02T09:09:52.212Z,39.20
2022-08-02T09:12:22.098Z,37.40
2022-08-02T09:14:50.070Z,37.20
2022-08-02T09:17:17.686Z,39.20
2022-08-02T09:19:46.363Z,39.40
2022-08-02T09:22:15.073Z,37.10
2022-08-02T09:24:52.549Z,37.10
2022-08-02T09:27:21.581Z,34.50
2022-08-02T09:30:13.613Z,35.00
2022-08-02T09:32:47.853Z,37.50
2022-08-02T09:35:15.378Z,35.10
2022-08-02T09:37:45.698Z,37.20
2022-08-02T09:40:15.081Z,35.70
2022-08-02T09:42:59.143Z,38.00
2022-08-02T09:45:30.622Z,38.50
2022-08-02T09:47:57.098Z,39.30
2022-08-02T09:50:23.630Z,40.40
2022-08-02T09:52:50.136Z,41.60
2022-08-02T09:55:16.749Z,40.00
2022-08-02T09:57:43.274Z,37.60
2022-08-02T10:00:26.960Z,37.50
2022-08-02T10:03:09.138Z,35.60
2022-08-02T10:05:55.513Z,36.80
2022-08-02T10:08:23.133Z,36.50
2022-08-02T10:11:00.585Z,35.40
2022-08-02T10:13:36.449Z,38.20
2022-08-02T10:16:04.658Z,34.20
2022-08-02T10:18:40.820Z,33.00
2022-08-02T10:21:13.339Z,36.70
2022-08-02T10:23:40.577Z,36.20
2022-08-02T10:26:08.117Z,35.80
2022-08-02T10:28:34.858Z,35.80
2022-08-02T10:31:04.887Z,35.40
2022-08-02T10:33:36.148Z,33.40
2022-08-02T10:36:07.464Z,34.70
2022-08-02T10:38:35.548Z,33.20
2022-08-02T10:41:02.108Z,35.30
2022-08-02T10:43:31.281Z,36.70
2022-08-02T10:46:20.511Z,35.20
2022-08-02T10:49:37.383Z,35.30
2022-08-02T10:52:02.919Z,34.00
2022-08-02T10:54:35.061Z,36.00
2022-08-02T10:57:02.066Z,36.20
2022-08-02T10:59:31.385Z,36.20
2022-08-02T11:02:03.511Z,33.70
2022-08-02T11:04:49.862Z,35.90
2022-08-02T11:07:18.580Z,36.40
2022-08-02T11:09:47.020Z,36.70
2022-08-02T11:12:18.410Z,35.20
2022-08-02T11:14:57.668Z,34.40
2022-08-02T11:17:25.074Z,35.50
2022-08-02T11:20:13.474Z,35.10
2022-08-02T11:22:41.827Z,35.90
2022-08-02T11:25:54.471Z,35.80
2022-08-02T11:28:16.923Z,33.90
2022-08-02T11:30:43.579Z,33.40
2022-08-02T11:33:10.032Z,34.20
2022-08-02T11:35:38.876Z,33.20
2022-08-02T11:38:16.492Z,33.00
2022-08-02T11:40:43.623Z,33.40
2022-08-02T11:43:24.205Z,33.20
2022-08-02T11:45:52.798Z,32.10
2022-08-02T11:48:36.425Z,33.00
2022-08-02T11:51:11.773Z,32.70
2022-08-02T11:53:43.603Z,32.80
2022-08-02T11:56:10.741Z,33.70
2022-08-02T11:58:38.331Z,33.60
2022-08-02T12:01:08.579Z,33.60
2022-08-02T12:03:37.109Z,32.80
2022-08-02T12:06:06.975Z,33.90
2022-08-02T12:08:42.964Z,32.60
2022-08-02T12:11:21.219Z,33.50
2022-08-02T12:13:56.465Z,33.70
2022-08-02T12:16:42.561Z,32.80
2022-08-02T12:19:19.213Z,33.10
2022-08-02T12:21:47.239Z,34.50
2022-08-02T12:24:13.909Z,33.80
2022-08-02T12:26:48.491Z,33.50
2022-08-02T12:29:14.989Z,34.40
2022-08-02T12:32:02.441Z,33.80
2022-08-02T12:34:32.104Z,32.40
2022-08-02T12:37:04.010Z,32.30
2022-08-02T12:39:35.985Z,32.40
2022-08-02T12:42:02.613Z,33.00
2022-08-02T12:44:29.326Z,33.30
2022-08-02T12:47:04.790Z,33.90
2022-08-02T12:49:31.723Z,33.20
2022-08-02T12:52:03.400Z,32.40
2022-08-02T12:54:40.483Z,32.00
2022-08-02T12:57:14.605Z,32.10
2022-08-02T12:59:44.433Z,33.20
2022-08-02T13:02:13.085Z,32.80
2022-08-02T13:04:40.177Z,33.20
2022-08-02T13:07:08.004Z,32.30
2022-08-02T13:09:39.455Z,32.10
2022-08-02T13:12:07.201Z,32.70
2022-08-02T13:14:40.479Z,32.60
2022-08-02T13:17:09.776Z,32.70
2022-08-02T13:19:37.005Z,32.40
2022-08-02T13:22:03.647Z,32.90
2022-08-02T13:24:39.729Z,33.20
2022-08-02T13:27:20.828Z,32.90
2022-08-02T13:29:48.763Z,33.30
2022-08-02T13:32:16.016Z,33.20
2022-08-02T13:34:43.253Z,32.90
2022-08-02T13:37:09.749Z,33.90
2022-08-02T13:39:36.219Z,33.60
2022-08-02T13:42:02.932Z,34.00
2022-08-02T13:44:29.592Z,34.70
2022-08-02T13:46:56.441Z,34.80
2022-08-02T13:49:50.702Z,34.20
2022-08-02T13:52:11.383Z,34.60
2022-08-02T13:54:39.370Z,34.70
2022-08-02T13:57:06.159Z,33.90
2022-08-02T13:59:57.199Z,33.70
2022-08-02T14:02:20.313Z,33.60
2022-08-02T14:04:46.826Z,33.30
2022-08-02T14:07:13.447Z,34.10
2022-08-02T14:09:40.554Z,34.80
2022-08-02T14:12:09.678Z,35.20
2022-08-02T14:14:36.550Z,34.10
2022-08-02T14:17:03.180Z,33.80
2022-08-02T14:19:29.707Z,33.60
2022-08-02T14:22:10.863Z,34.00
2022-08-02T14:24:39.370Z,32.70
2022-08-02T14:27:05.921Z,32.90
2022-08-02T14:29:32.392Z,33.00
2022-08-02T14:31:58.981Z,33.10
2022-08-02T14:34:25.622Z,33.40
2022-08-02T14:36:54.131Z,33.50
2022-08-02T14:39:22.271Z,33.50
2022-08-02T14:41:59.685Z,32.80
2022-08-02T14:44:28.792Z,32.90
2022-08-02T14:46:56.060Z,33.90
2022-08-02T14:49:25.872Z,35.00
2022-08-02T14:51:56.969Z,34.00
2022-08-02T14:54:28.302Z,34.30
2022-08-02T14:57:02.323Z,34.60
2022-08-02T14:59:29.898Z,33.90
2022-08-02T15:01:56.614Z,33.50
2022-08-02T15:04:23.325Z,33.70
2022-08-02T15:06:50.832Z,33.30
2022-08-02T15:09:17.576Z,34.10
2022-08-02T15:11:47.954Z,33.80
2022-08-02T15:14:18.475Z,33.00
2022-08-02T15:16:59.246Z,32.90
2022-08-02T15:19:50.388Z,32.80
2022-08-02T15:22:16.254Z,33.00
2022-08-02T15:24:45.527Z,32.70
2022-08-02T15:27:15.788Z,32.80
2022-08-02T15:29:44.382Z,32.40
2022-08-02T15:32:11.676Z,31.80
2022-08-02T15:34:38.813Z,31.20
2022-08-02T15:37:05.348Z,31.50
2022-08-02T15:39:31.923Z,31.20
2022-08-02T15:41:58.503Z,31.20
2022-08-02T15:44:25.173Z,30.80
2022-08-02T15:46:53.239Z,31.30
2022-08-02T15:49:20.750Z,31.70
2022-08-02T15:51:47.341Z,31.50
2022-08-02T15:54:13.909Z,31.40
2022-08-02T15:56:40.522Z,30.40
2022-08-02T15:59:06.987Z,31.30
2022-08-02T16:01:40.279Z,31.20
2022-08-02T16:04:09.027Z,31.70
2022-08-02T16:06:36.667Z,31.60
2022-08-02T16:09:03.769Z,31.50
2022-08-02T16:11:30.426Z,31.80
2022-08-02T16:13:58.992Z,31.70
2022-08-02T16:16:29.051Z,30.80
2022-08-02T16:18:55.859Z,30.40
2022-08-02T16:21:25.539Z,30.70
2022-08-02T16:23:59.032Z,30.10
2022-08-02T16:26:30.180Z,30.20
2022-08-02T16:28:57.476Z,30.50
2022-08-02T16:31:24.070Z,30.40
2022-08-02T16:33:50.711Z,30.60
2022-08-02T16:36:23.644Z,30.30
2022-08-02T16:38:50.235Z,30.40
2022-08-02T16:41:16.799Z,30.30
2022-08-02T16:43:43.310Z,30.30
2022-08-02T16:46:10.193Z,30.30
2022-08-02T16:48:36.921Z,30.30
2022-08-02T16:51:03.431Z,30.40
2022-08-02T16:53:36.327Z,30.20
2022-08-02T16:56:04.459Z,30.40
2022-08-02T16:58:31.212Z,30.20
2022-08-02T17:00:57.949Z,29.90
2022-08-02T17:03:24.528Z,29.90
2022-08-02T17:06:11.037Z,29.10
2022-08-02T17:08:54.274Z,29.40
2022-08-02T17:11:21.574Z,29.70
2022-08-02T17:13:50.948Z,29.80
2022-08-02T17:16:20.953Z,29.80
2022-08-02T17:18:53.150Z,29.60
2022-08-02T17:21:20.010Z,29.30
2022-08-02T17:24:05.868Z,29.20
2022-08-02T17:26:33.126Z,28.80
2022-08-02T17:29:18.000Z,29.00
2022-08-02T17:32:05.281Z,29.10
2022-08-02T17:34:36.011Z,28.90
2022-08-02T17:37:05.604Z,28.80
2022-08-02T17:39:33.479Z,28.70
2022-08-02T17:42:01.384Z,28.70
2022-08-02T17:44:37.608Z,28.30
2022-08-02T17:47:11.890Z,28.10
2022-08-02T17:49:48.075Z,28.10
2022-08-02T17:52:49.976Z,27.90
2022-08-02T17:55:06.864Z,27.70
2022-08-02T17:57:55.271Z,27.60
2022-08-02T18:00:20.380Z,27.40
2022-08-02T18:02:53.000Z,27.30
2022-08-02T18:05:22.374Z,27.10
2022-08-02T18:07:56.763Z,26.90
2022-08-02T18:10:27.675Z,26.60
2022-08-02T18:12:54.355Z,26.70
2022-08-02T18:15:23.532Z,26.50
2022-08-02T18:17:50.551Z,26.30
2022-08-02T18:20:21.103Z,26.10
2022-08-02T18:22:48.065Z,26.00
2022-08-02T18:25:36.489Z,25.80
2022-08-02T18:28:09.274Z,25.60
2022-08-02T18:30:37.972Z,25.50
2022-08-02T18:33:58.413Z,25.30
2022-08-02T18:35:52.206Z,25.20
2022-08-02T18:38:22.018Z,25.00
2022-08-02T18:40:50.605Z,24.90
2022-08-02T18:43:25.486Z,24.70
2022-08-02T18:46:06.969Z,24.70
2022-08-02T18:48:44.185Z,24.50
2022-08-02T18:51:14.986Z,24.40
2022-08-02T18:53:42.973Z,24.40
2022-08-02T18:56:19.939Z,24.20
2022-08-02T18:58:55.312Z,24.10
2022-08-02T19:01:32.433Z,23.90
2022-08-02T19:04:02.691Z,23.70
2022-08-02T19:06:29.681Z,23.60
2022-08-02T19:09:11.572Z,23.40
2022-08-02T19:11:48.354Z,23.20
2022-08-02T19:14:27.749Z,23.10
2022-08-02T19:16:56.292Z,23.20
2022-08-02T19:19:23.273Z,23.00
2022-08-02T19:22:15.775Z,22.90
2022-08-02T19:24:43.275Z,22.80
2022-08-02T19:27:13.370Z,22.70
2022-08-02T19:29:42.624Z,22.80
2022-08-02T19:32:40.240Z,22.70
2022-08-02T19:37:51.610Z,22.50
2022-08-02T19:40:24.146Z,22.30
2022-08-02T19:44:20.911Z,22.20
2022-08-02T19:45:50.144Z,22.10
2022-08-02T19:48:18.336Z,21.90
2022-08-02T19:50:53.725Z,21.90
2022-08-02T19:53:23.573Z,21.70
2022-08-02T19:56:00.983Z,21.70
2022-08-02T19:58:32.418Z,21.60
2022-08-02T20:00:59.204Z,21.50
2022-08-02T20:03:50.796Z,21.50
2022-08-02T20:06:13.795Z,21.40
2022-08-02T20:08:40.708Z,21.20
2022-08-02T20:11:19.651Z,21.20
2022-08-02T20:13:50.146Z,21.20
2022-08-02T20:16:20.910Z,21.20
2022-08-02T20:18:58.449Z,21.10
2022-08-02T20:21:35.612Z,21.00
2022-08-02T20:24:05.715Z,21.10
2022-08-02T20:26:32.253Z,21.00
2022-08-02T20:29:02.814Z,21.00
2022-08-02T20:31:29.825Z,20.90
2022-08-02T20:33:56.897Z,20.80
2022-08-02T20:36:24.251Z,20.70
2022-08-02T20:38:50.763Z,20.70
2022-08-02T20:41:21.440Z,20.70
2022-08-02T20:43:48.979Z,20.60
2022-08-02T20:46:15.671Z,20.50
2022-08-02T20:48:42.221Z,20.50
2022-08-02T20:51:12.201Z,20.40
2022-08-02T20:53:54.894Z,20.40
2022-08-02T20:56:24.266Z,20.20
2022-08-02T20:58:52.178Z,20.10
2022-08-02T21:01:21.361Z,20.10
2022-08-02T21:03:53.656Z,20.00
2022-08-02T21:06:28.065Z,19.90
2022-08-02T21:08:54.975Z,19.90
2022-08-02T21:11:25.464Z,19.90
2022-08-02T21:14:07.958Z,19.80
2022-08-02T21:16:34.911Z,19.70
2022-08-02T21:19:02.096Z,19.70
2022-08-02T21:21:29.779Z,19.70
2022-08-02T21:23:56.612Z,19.60
2022-08-02T21:26:27.870Z,19.60
2022-08-02T21:28:55.514Z,19.50
2022-08-02T21:31:22.015Z,19.50
2022-08-02T21:33:58.154Z,19.40
2022-08-02T21:36:30.870Z,19.40
2022-08-02T21:38:59.192Z,19.30
2022-08-02T21:41:38.602Z,19.30
2022-08-02T21:44:08.539Z,19.40
2022-08-02T21:46:35.072Z,19.30
2022-08-02T21:49:02.240Z,19.40
2022-08-02T21:51:29.108Z,19.30
2022-08-02T21:54:17.480Z,19.30
2022-08-02T21:56:46.105Z,19.30
2022-08-02T21:59:15.772Z,19.30
2022-08-02T22:01:52.839Z,19.30
2022-08-02T22:04:20.621Z,19.10
2022-08-02T22:06:47.183Z,19.20
2022-08-02T22:09:43.340Z,19.20
2022-08-02T22:12:06.591Z,19.20
2022-08-02T22:14:37.312Z,19.20
2022-08-02T22:17:08.668Z,19.10
2022-08-02T22:19:36.226Z,19.20
2022-08-02T22:22:02.965Z,19.20
2022-08-02T22:24:29.699Z,19.20
2022-08-02T22:26:56.905Z,19.20
2022-08-02T22:29:23.453Z,19.30
2022-08-02T22:31:49.946Z,19.30
2022-08-02T22:34:37.310Z,19.30
2022-08-02T22:37:05.935Z,19.30
2022-08-02T22:39:34.190Z,19.30
2022-08-02T22:42:05.233Z,19.30
2022-08-02T22:44:44.213Z,19.30
2022-08-02T22:47:14.843Z,19.30
2022-08-02T22:49:51.739Z,19.30
2022-08-02T22:52:22.741Z,19.30
2022-08-02T22:54:50.790Z,19.40
2022-08-02T22:57:29.983Z,19.40
2022-08-02T22:59:05.602Z,22.60
2022-08-02T22:59:57.477Z,19.40
2022-08-02T23:02:25.050Z,19.40
2022-08-02T23:04:51.693Z,19.50
2022-08-02T23:07:21.249Z,19.40
2022-08-02T23:09:47.712Z,19.50
2022-08-02T23:12:19.044Z,19.50
2022-08-02T23:14:46.853Z,19.40
2022-08-02T23:17:32.134Z,19.50
2022-08-02T23:19:58.670Z,19.50
2022-08-02T23:22:29.761Z,19.60
2022-08-02T23:25:00.279Z,19.50
2022-08-02T23:27:26.852Z,19.50
2022-08-02T23:29:53.410Z,19.50
2022-08-02T23:32:22.887Z,19.50
2022-08-02T23:34:52.085Z,19.50
2022-08-02T23:37:18.578Z,19.40
2022-08-02T23:39:46.374Z,19.40
2022-08-02T23:42:12.977Z,19.30
2022-08-02T23:44:39.627Z,19.30
2022-08-02T23:47:06.407Z,19.20
2022-08-02T23:49:33.154Z,19.20
2022-08-02T23:52:02.015Z,19.10
2022-08-02T23:54:29.106Z,19.10
2022-08-02T23:56:55.871Z,19.00
2022-08-02T23:59:22.613Z,19.00
